sensor_id;sensor_type;location;lat;lon;timestamp;pressure;altitude;pressure_sealevel;temperature;humidity
58991;BME280;44781;53.444;14.476;2023-05-10T00:01:18;101414.35;;;12.65;40.88
58991;BME280;44781;53.444;14.476;2023-05-10T00:03:45;101417.27;;;12.61;41.09
58991;BME280;44781;53.444;14.476;2023-05-10T00:06:12;101416.39;;;12.59;41.07
58991;BME280;44781;53.444;14.476;2023-05-10T00:08:39;101413.05;;;12.56;41.32
58991;BME280;44781;53.444;14.476;2023-05-10T00:11:06;101412.92;;;12.53;41.34
58991;BME280;44781;53.444;14.476;2023-05-10T00:13:36;101410.45;;;12.51;41.58
58991;BME280;44781;53.444;14.476;2023-05-10T00:16:03;101409.77;;;12.48;41.50
58991;BME280;44781;53.444;14.476;2023-05-10T00:18:30;101406.89;;;12.46;41.63
58991;BME280;44781;53.444;14.476;2023-05-10T00:20:57;101406.74;;;12.43;41.70
58991;BME280;44781;53.444;14.476;2023-05-10T00:23:23;101401.61;;;12.41;41.75
58991;BME280;44781;53.444;14.476;2023-05-10T00:25:50;101402.90;;;12.38;41.85
58991;BME280;44781;53.444;14.476;2023-05-10T00:28:17;101401.70;;;12.35;41.90
58991;BME280;44781;53.444;14.476;2023-05-10T00:30:44;101404.64;;;12.31;41.98
58991;BME280;44781;53.444;14.476;2023-05-10T00:33:11;101406.70;;;12.27;42.04
58991;BME280;44781;53.444;14.476;2023-05-10T00:35:39;101402.11;;;12.24;42.32
58991;BME280;44781;53.444;14.476;2023-05-10T00:38:05;101398.60;;;12.21;42.38
58991;BME280;44781;53.444;14.476;2023-05-10T00:40:33;101396.29;;;12.19;42.46
58991;BME280;44781;53.444;14.476;2023-05-10T00:43:03;101395.39;;;12.14;42.50
58991;BME280;44781;53.444;14.476;2023-05-10T00:45:32;101398.77;;;12.12;42.54
58991;BME280;44781;53.444;14.476;2023-05-10T00:48:02;101398.86;;;12.10;42.80
58991;BME280;44781;53.444;14.476;2023-05-10T00:50:31;101394.90;;;12.07;42.86
58991;BME280;44781;53.444;14.476;2023-05-10T00:53:00;101394.08;;;12.03;42.91
58991;BME280;44781;53.444;14.476;2023-05-10T00:55:28;101390.95;;;12.00;43.07
58991;BME280;44781;53.444;14.476;2023-05-10T00:57:55;101390.06;;;11.97;43.18
58991;BME280;44781;53.444;14.476;2023-05-10T01:00:22;101390.75;;;11.95;43.00
58991;BME280;44781;53.444;14.476;2023-05-10T01:02:50;101389.16;;;11.92;43.22
58991;BME280;44781;53.444;14.476;2023-05-10T01:05:17;101392.70;;;11.90;43.24
58991;BME280;44781;53.444;14.476;2023-05-10T01:07:44;101389.30;;;11.88;43.39
58991;BME280;44781;53.444;14.476;2023-05-10T01:10:12;101390.73;;;11.85;43.53
58991;BME280;44781;53.444;14.476;2023-05-10T01:12:41;101390.59;;;11.82;43.48
58991;BME280;44781;53.444;14.476;2023-05-10T01:15:10;101391.29;;;11.79;43.50
58991;BME280;44781;53.444;14.476;2023-05-10T01:17:39;101388.48;;;11.77;43.78
58991;BME280;44781;53.444;14.476;2023-05-10T01:20:09;101386.39;;;11.74;43.74
58991;BME280;44781;53.444;14.476;2023-05-10T01:23:10;101388.17;;;11.71;43.73
58991;BME280;44781;53.444;14.476;2023-05-10T01:28:43;101382.56;;;11.63;43.95
58991;BME280;44781;53.444;14.476;2023-05-10T01:34:27;101384.20;;;11.55;44.34
58991;BME280;44781;53.444;14.476;2023-05-10T01:37:20;101384.48;;;11.51;44.62
58991;BME280;44781;53.444;14.476;2023-05-10T01:40:03;101382.95;;;11.47;44.65
58991;BME280;44781;53.444;14.476;2023-05-10T01:42:48;101384.61;;;11.43;44.69
58991;BME280;44781;53.444;14.476;2023-05-10T01:47:45;101387.53;;;11.35;44.83
58991;BME280;44781;53.444;14.476;2023-05-10T01:50:27;101388.41;;;11.30;45.02
58991;BME280;44781;53.444;14.476;2023-05-10T01:52:57;101387.98;;;11.26;45.23
58991;BME280;44781;53.444;14.476;2023-05-10T01:55:30;101387.40;;;11.21;45.11
58991;BME280;44781;53.444;14.476;2023-05-10T01:58:04;101387.30;;;11.18;45.36
58991;BME280;44781;53.444;14.476;2023-05-10T02:00:33;101387.56;;;11.14;45.45
58991;BME280;44781;53.444;14.476;2023-05-10T02:03:05;101388.02;;;11.10;45.68
58991;BME280;44781;53.444;14.476;2023-05-10T02:05:34;101385.20;;;11.04;45.63
58991;BME280;44781;53.444;14.476;2023-05-10T02:08:03;101383.63;;;11.01;46.03
58991;BME280;44781;53.444;14.476;2023-05-10T02:10:34;101381.80;;;10.97;46.00
58991;BME280;44781;53.444;14.476;2023-05-10T02:13:02;101381.45;;;10.92;46.04
58991;BME280;44781;53.444;14.476;2023-05-10T02:15:30;101382.21;;;10.89;46.15
58991;BME280;44781;53.444;14.476;2023-05-10T02:18:00;101381.05;;;10.84;46.35
58991;BME280;44781;53.444;14.476;2023-05-10T02:20:31;101378.64;;;10.81;46.20
58991;BME280;44781;53.444;14.476;2023-05-10T02:22:59;101378.70;;;10.77;46.49
58991;BME280;44781;53.444;14.476;2023-05-10T02:25:28;101373.23;;;10.75;46.47
58991;BME280;44781;53.444;14.476;2023-05-10T02:27:57;101369.02;;;10.72;46.57
58991;BME280;44781;53.444;14.476;2023-05-10T02:30:24;101368.80;;;10.70;46.58
58991;BME280;44781;53.444;14.476;2023-05-10T02:32:52;101367.54;;;10.68;46.54
58991;BME280;44781;53.444;14.476;2023-05-10T02:35:20;101367.33;;;10.65;46.87
58991;BME280;44781;53.444;14.476;2023-05-10T02:37:48;101364.13;;;10.62;46.86
58991;BME280;44781;53.444;14.476;2023-05-10T02:40:16;101362.89;;;10.60;47.05
58991;BME280;44781;53.444;14.476;2023-05-10T02:42:45;101361.20;;;10.56;46.86
58991;BME280;44781;53.444;14.476;2023-05-10T02:45:23;101357.66;;;10.54;47.19
58991;BME280;44781;53.444;14.476;2023-05-10T02:47:52;101361.41;;;10.50;47.09
58991;BME280;44781;53.444;14.476;2023-05-10T02:50:22;101359.68;;;10.47;47.39
58991;BME280;44781;53.444;14.476;2023-05-10T02:52:55;101355.00;;;10.43;47.29
58991;BME280;44781;53.444;14.476;2023-05-10T02:55:31;101356.66;;;10.39;47.38
58991;BME280;44781;53.444;14.476;2023-05-10T02:58:00;101357.97;;;10.36;47.58
58991;BME280;44781;53.444;14.476;2023-05-10T03:00:28;101354.16;;;10.32;47.61
58991;BME280;44781;53.444;14.476;2023-05-10T03:02:55;101350.09;;;10.29;47.54
58991;BME280;44781;53.444;14.476;2023-05-10T03:05:22;101354.55;;;10.25;47.65
58991;BME280;44781;53.444;14.476;2023-05-10T03:07:50;101358.09;;;10.22;47.92
58991;BME280;44781;53.444;14.476;2023-05-10T03:10:18;101357.72;;;10.20;47.85
58991;BME280;44781;53.444;14.476;2023-05-10T03:15:47;101359.45;;;10.15;47.95
58991;BME280;44781;53.444;14.476;2023-05-10T03:18:22;101359.26;;;10.13;48.21
58991;BME280;44781;53.444;14.476;2023-05-10T03:20:50;101359.61;;;10.10;48.44
58991;BME280;44781;53.444;14.476;2023-05-10T03:23:27;101360.55;;;10.06;48.38
58991;BME280;44781;53.444;14.476;2023-05-10T03:25:56;101352.56;;;10.01;48.33
58991;BME280;44781;53.444;14.476;2023-05-10T03:28:25;101351.95;;;9.97;48.60
58991;BME280;44781;53.444;14.476;2023-05-10T03:30:53;101353.17;;;9.94;48.63
58991;BME280;44781;53.444;14.476;2023-05-10T03:33:22;101347.89;;;9.92;48.72
58991;BME280;44781;53.444;14.476;2023-05-10T03:35:48;101349.11;;;9.89;49.00
58991;BME280;44781;53.444;14.476;2023-05-10T03:38:16;101348.98;;;9.85;48.98
58991;BME280;44781;53.444;14.476;2023-05-10T03:40:42;101352.48;;;9.83;49.18
58991;BME280;44781;53.444;14.476;2023-05-10T03:43:09;101350.02;;;9.80;49.15
58991;BME280;44781;53.444;14.476;2023-05-10T03:45:36;101345.27;;;9.77;49.16
58991;BME280;44781;53.444;14.476;2023-05-10T03:48:03;101350.67;;;9.75;49.23
58991;BME280;44781;53.444;14.476;2023-05-10T03:50:31;101350.11;;;9.73;49.39
58991;BME280;44781;53.444;14.476;2023-05-10T03:52:58;101349.02;;;9.71;49.41
58991;BME280;44781;53.444;14.476;2023-05-10T03:55:25;101351.27;;;9.68;49.53
58991;BME280;44781;53.444;14.476;2023-05-10T03:57:51;101351.92;;;9.66;49.66
58991;BME280;44781;53.444;14.476;2023-05-10T04:00:22;101352.92;;;9.65;49.49
58991;BME280;44781;53.444;14.476;2023-05-10T04:02:50;101351.10;;;9.63;49.88
58991;BME280;44781;53.444;14.476;2023-05-10T04:05:19;101351.34;;;9.62;49.94
58991;BME280;44781;53.444;14.476;2023-05-10T04:07:46;101354.24;;;9.61;50.08
58991;BME280;44781;53.444;14.476;2023-05-10T04:10:14;101349.41;;;9.59;50.16
58991;BME280;44781;53.444;14.476;2023-05-10T04:12:41;101348.95;;;9.58;50.27
58991;BME280;44781;53.444;14.476;2023-05-10T04:15:08;101347.95;;;9.57;50.18
58991;BME280;44781;53.444;14.476;2023-05-10T04:17:35;101345.83;;;9.57;50.30
58991;BME280;44781;53.444;14.476;2023-05-10T04:20:02;101339.52;;;9.56;50.30
58991;BME280;44781;53.444;14.476;2023-05-10T04:22:30;101338.59;;;9.57;50.42
58991;BME280;44781;53.444;14.476;2023-05-10T04:24:58;101337.70;;;9.57;50.34
58991;BME280;44781;53.444;14.476;2023-05-10T04:27:25;101334.20;;;9.57;50.35
58991;BME280;44781;53.444;14.476;2023-05-10T04:29:52;101334.17;;;9.57;50.67
58991;BME280;44781;53.444;14.476;2023-05-10T04:32:19;101336.93;;;9.58;50.63
58991;BME280;44781;53.444;14.476;2023-05-10T04:34:47;101331.58;;;9.59;50.60
58991;BME280;44781;53.444;14.476;2023-05-10T04:37:13;101331.84;;;9.61;50.71
58991;BME280;44781;53.444;14.476;2023-05-10T04:39:40;101330.34;;;9.62;50.68
58991;BME280;44781;53.444;14.476;2023-05-10T04:42:12;101332.89;;;9.64;50.85
58991;BME280;44781;53.444;14.476;2023-05-10T04:44:41;101336.26;;;9.66;50.77
58991;BME280;44781;53.444;14.476;2023-05-10T04:47:08;101333.11;;;9.69;50.77
58991;BME280;44781;53.444;14.476;2023-05-10T04:49:35;101331.35;;;9.71;50.79
58991;BME280;44781;53.444;14.476;2023-05-10T04:52:03;101338.07;;;9.74;50.98
58991;BME280;44781;53.444;14.476;2023-05-10T04:54:30;101335.45;;;9.77;50.98
58991;BME280;44781;53.444;14.476;2023-05-10T04:56:57;101330.45;;;9.80;50.98
58991;BME280;44781;53.444;14.476;2023-05-10T04:59:24;101325.55;;;9.82;50.94
58991;BME280;44781;53.444;14.476;2023-05-10T05:01:51;101328.20;;;9.84;51.13
58991;BME280;44781;53.444;14.476;2023-05-10T05:04:17;101329.42;;;9.88;50.94
58991;BME280;44781;53.444;14.476;2023-05-10T05:06:44;101330.29;;;9.91;51.11
58991;BME280;44781;53.444;14.476;2023-05-10T05:09:11;101332.19;;;9.94;50.92
58991;BME280;44781;53.444;14.476;2023-05-10T05:11:39;101330.23;;;9.98;50.65
58991;BME280;44781;53.444;14.476;2023-05-10T05:14:07;101328.77;;;10.01;50.69
58991;BME280;44781;53.444;14.476;2023-05-10T05:16:34;101329.77;;;10.04;50.60
58991;BME280;44781;53.444;14.476;2023-05-10T05:19:04;101326.70;;;10.08;50.89
58991;BME280;44781;53.444;14.476;2023-05-10T05:21:31;101330.89;;;10.12;50.97
58991;BME280;44781;53.444;14.476;2023-05-10T05:24:00;101328.75;;;10.15;50.98
58991;BME280;44781;53.444;14.476;2023-05-10T05:26:30;101333.75;;;10.19;50.88
58991;BME280;44781;53.444;14.476;2023-05-10T05:28:59;101338.13;;;10.22;50.66
58991;BME280;44781;53.444;14.476;2023-05-10T05:31:26;101336.65;;;10.26;50.51
58991;BME280;44781;53.444;14.476;2023-05-10T05:33:54;101331.80;;;10.31;50.54
58991;BME280;44781;53.444;14.476;2023-05-10T05:36:23;101335.77;;;10.35;50.58
58991;BME280;44781;53.444;14.476;2023-05-10T05:38:50;101335.84;;;10.39;50.86
58991;BME280;44781;53.444;14.476;2023-05-10T05:41:17;101330.25;;;10.44;50.81
58991;BME280;44781;53.444;14.476;2023-05-10T05:43:44;101333.04;;;10.49;50.75
58991;BME280;44781;53.444;14.476;2023-05-10T05:46:12;101332.65;;;10.55;50.64
58991;BME280;44781;53.444;14.476;2023-05-10T05:48:40;101333.83;;;10.61;50.37
58991;BME280;44781;53.444;14.476;2023-05-10T05:51:09;101328.43;;;10.68;50.33
58991;BME280;44781;53.444;14.476;2023-05-10T05:53:37;101328.02;;;10.74;50.19
58991;BME280;44781;53.444;14.476;2023-05-10T05:56:06;101326.90;;;10.81;49.99
58991;BME280;44781;53.444;14.476;2023-05-10T05:58:35;101325.98;;;10.86;50.21
58991;BME280;44781;53.444;14.476;2023-05-10T06:01:02;101323.30;;;10.92;50.02
58991;BME280;44781;53.444;14.476;2023-05-10T06:03:29;101329.65;;;10.97;49.73
58991;BME280;44781;53.444;14.476;2023-05-10T06:05:56;101327.39;;;11.02;49.97
58991;BME280;44781;53.444;14.476;2023-05-10T06:08:23;101329.54;;;11.07;50.06
58991;BME280;44781;53.444;14.476;2023-05-10T06:10:50;101324.75;;;11.12;49.99
58991;BME280;44781;53.444;14.476;2023-05-10T06:13:17;101320.89;;;11.17;49.96
58991;BME280;44781;53.444;14.476;2023-05-10T06:15:44;101320.55;;;11.21;49.94
58991;BME280;44781;53.444;14.476;2023-05-10T06:18:12;101312.95;;;11.26;49.83
58991;BME280;44781;53.444;14.476;2023-05-10T06:20:41;101310.29;;;11.32;49.70
58991;BME280;44781;53.444;14.476;2023-05-10T06:23:09;101309.88;;;11.37;49.92
58991;BME280;44781;53.444;14.476;2023-05-10T06:25:36;101309.67;;;11.42;49.72
58991;BME280;44781;53.444;14.476;2023-05-10T06:28:03;101310.48;;;11.49;49.69
58991;BME280;44781;53.444;14.476;2023-05-10T06:30:31;101306.33;;;11.55;49.66
58991;BME280;44781;53.444;14.476;2023-05-10T06:32:58;101303.08;;;11.61;49.43
58991;BME280;44781;53.444;14.476;2023-05-10T06:35:25;101304.19;;;11.68;49.53
58991;BME280;44781;53.444;14.476;2023-05-10T06:37:52;101301.48;;;11.73;49.28
58991;BME280;44781;53.444;14.476;2023-05-10T06:40:20;101299.55;;;11.80;49.49
58991;BME280;44781;53.444;14.476;2023-05-10T06:42:47;101299.29;;;11.87;49.36
58991;BME280;44781;53.444;14.476;2023-05-10T06:45:15;101297.95;;;11.93;49.28
58991;BME280;44781;53.444;14.476;2023-05-10T06:47:42;101295.67;;;12.00;49.04
58991;BME280;44781;53.444;14.476;2023-05-10T06:50:09;101295.83;;;12.07;49.16
58991;BME280;44781;53.444;14.476;2023-05-10T06:52:37;101295.12;;;12.15;48.96
58991;BME280;44781;53.444;14.476;2023-05-10T06:55:05;101292.23;;;12.22;48.95
58991;BME280;44781;53.444;14.476;2023-05-10T06:57:32;101291.67;;;12.30;49.07
58991;BME280;44781;53.444;14.476;2023-05-10T06:59:59;101290.92;;;12.38;48.91
58991;BME280;44781;53.444;14.476;2023-05-10T07:02:29;101288.23;;;12.45;48.70
58991;BME280;44781;53.444;14.476;2023-05-10T07:05:00;101285.30;;;12.53;48.89
58991;BME280;44781;53.444;14.476;2023-05-10T07:07:42;101288.94;;;12.62;48.63
58991;BME280;44781;53.444;14.476;2023-05-10T07:10:10;101284.70;;;12.71;48.63
58991;BME280;44781;53.444;14.476;2023-05-10T07:12:44;101284.19;;;12.80;48.41
58991;BME280;44781;53.444;14.476;2023-05-10T07:15:13;101282.77;;;12.89;48.39
58991;BME280;44781;53.444;14.476;2023-05-10T07:17:40;101278.52;;;12.98;48.36
58991;BME280;44781;53.444;14.476;2023-05-10T07:20:09;101271.84;;;13.07;48.25
58991;BME280;44781;53.444;14.476;2023-05-10T07:22:37;101270.21;;;13.16;48.01
58991;BME280;44781;53.444;14.476;2023-05-10T07:25:06;101273.94;;;13.25;48.17
58991;BME280;44781;53.444;14.476;2023-05-10T07:27:33;101270.41;;;13.34;47.80
58991;BME280;44781;53.444;14.476;2023-05-10T07:30:00;101270.61;;;13.43;47.58
58991;BME280;44781;53.444;14.476;2023-05-10T07:32:28;101270.05;;;13.52;47.60
58991;BME280;44781;53.444;14.476;2023-05-10T07:34:55;101261.95;;;13.60;47.22
58991;BME280;44781;53.444;14.476;2023-05-10T07:37:22;101263.36;;;13.69;47.21
58991;BME280;44781;53.444;14.476;2023-05-10T07:39:51;101263.80;;;13.76;47.33
58991;BME280;44781;53.444;14.476;2023-05-10T07:42:18;101268.30;;;13.85;46.96
58991;BME280;44781;53.444;14.476;2023-05-10T07:44:48;101270.52;;;13.92;46.91
58991;BME280;44781;53.444;14.476;2023-05-10T07:47:18;101265.40;;;14.01;47.08
58991;BME280;44781;53.444;14.476;2023-05-10T07:49:48;101262.96;;;14.08;46.87
58991;BME280;44781;53.444;14.476;2023-05-10T07:52:20;101265.87;;;14.16;46.99
58991;BME280;44781;53.444;14.476;2023-05-10T07:54:47;101260.05;;;14.24;46.60
58991;BME280;44781;53.444;14.476;2023-05-10T07:57:15;101252.27;;;14.32;46.57
58991;BME280;44781;53.444;14.476;2023-05-10T07:59:44;101256.38;;;14.41;46.41
58991;BME280;44781;53.444;14.476;2023-05-10T08:02:15;101256.38;;;14.49;46.44
58991;BME280;44781;53.444;14.476;2023-05-10T08:04:42;101252.89;;;14.57;46.59
58991;BME280;44781;53.444;14.476;2023-05-10T08:07:16;101254.44;;;14.66;46.47
58991;BME280;44781;53.444;14.476;2023-05-10T08:09:44;101255.14;;;14.74;46.54
58991;BME280;44781;53.444;14.476;2023-05-10T08:12:11;101250.91;;;14.82;46.35
58991;BME280;44781;53.444;14.476;2023-05-10T08:14:49;101249.98;;;14.91;45.98
58991;BME280;44781;53.444;14.476;2023-05-10T08:17:16;101246.05;;;14.99;45.78
58991;BME280;44781;53.444;14.476;2023-05-10T08:19:45;101244.67;;;15.07;45.70
58991;BME280;44781;53.444;14.476;2023-05-10T08:22:11;101246.62;;;15.15;45.77
58991;BME280;44781;53.444;14.476;2023-05-10T08:24:38;101241.42;;;15.22;45.75
58991;BME280;44781;53.444;14.476;2023-05-10T08:27:09;101241.26;;;15.30;45.72
58991;BME280;44781;53.444;14.476;2023-05-10T08:29:37;101242.06;;;15.39;45.59
58991;BME280;44781;53.444;14.476;2023-05-10T08:32:10;101231.77;;;15.46;45.53
58991;BME280;44781;53.444;14.476;2023-05-10T08:34:36;101234.58;;;15.55;45.63
58991;BME280;44781;53.444;14.476;2023-05-10T08:37:03;101235.51;;;15.63;45.39
58991;BME280;44781;53.444;14.476;2023-05-10T08:39:34;101235.02;;;15.70;45.07
58991;BME280;44781;53.444;14.476;2023-05-10T08:42:02;101228.73;;;15.77;44.96
58991;BME280;44781;53.444;14.476;2023-05-10T08:44:35;101231.71;;;15.83;45.28
58991;BME280;44781;53.444;14.476;2023-05-10T08:47:06;101233.35;;;15.91;45.21
58991;BME280;44781;53.444;14.476;2023-05-10T08:49:33;101230.64;;;15.99;44.92
58991;BME280;44781;53.444;14.476;2023-05-10T08:52:03;101227.53;;;16.07;44.81
58991;BME280;44781;53.444;14.476;2023-05-10T08:54:32;101223.50;;;16.16;45.09
58991;BME280;44781;53.444;14.476;2023-05-10T08:57:02;101224.80;;;16.27;45.07
58991;BME280;44781;53.444;14.476;2023-05-10T08:59:30;101227.95;;;16.38;45.03
58991;BME280;44781;53.444;14.476;2023-05-10T09:02:02;101229.54;;;16.47;44.43
58991;BME280;44781;53.444;14.476;2023-05-10T09:04:31;101224.77;;;16.57;43.96
58991;BME280;44781;53.444;14.476;2023-05-10T09:07:09;101225.56;;;16.65;43.50
58991;BME280;44781;53.444;14.476;2023-05-10T09:09:57;101223.79;;;16.74;43.38
58991;BME280;44781;53.444;14.476;2023-05-10T09:12:38;101214.81;;;16.85;43.32
58991;BME280;44781;53.444;14.476;2023-05-10T09:15:21;101214.39;;;16.95;43.42
58991;BME280;44781;53.444;14.476;2023-05-10T09:17:55;101214.63;;;17.05;43.34
58991;BME280;44781;53.444;14.476;2023-05-10T09:20:32;101219.11;;;17.16;42.81
58991;BME280;44781;53.444;14.476;2023-05-10T09:23:13;101218.44;;;17.27;42.67
58991;BME280;44781;53.444;14.476;2023-05-10T09:25:43;101215.36;;;17.37;42.71
58991;BME280;44781;53.444;14.476;2023-05-10T09:28:17;101215.81;;;17.47;42.75
58991;BME280;44781;53.444;14.476;2023-05-10T09:30:52;101219.28;;;17.57;42.79
58991;BME280;44781;53.444;14.476;2023-05-10T09:33:20;101217.70;;;17.67;42.50
58991;BME280;44781;53.444;14.476;2023-05-10T09:35:46;101219.14;;;17.76;42.73
58991;BME280;44781;53.444;14.476;2023-05-10T09:38:13;101222.98;;;17.85;42.49
58991;BME280;44781;53.444;14.476;2023-05-10T09:40:41;101219.66;;;17.93;42.31
58991;BME280;44781;53.444;14.476;2023-05-10T09:43:20;101219.16;;;18.01;42.42
58991;BME280;44781;53.444;14.476;2023-05-10T09:45:48;101216.92;;;18.09;42.05
58991;BME280;44781;53.444;14.476;2023-05-10T09:48:18;101208.40;;;18.16;41.76
58991;BME280;44781;53.444;14.476;2023-05-10T09:50:45;101213.36;;;18.22;41.57
58991;BME280;44781;53.444;14.476;2023-05-10T09:53:14;101210.23;;;18.28;41.60
58991;BME280;44781;53.444;14.476;2023-05-10T09:55:44;101214.50;;;18.35;41.67
58991;BME280;44781;53.444;14.476;2023-05-10T09:58:15;101211.00;;;18.42;41.49
58991;BME280;44781;53.444;14.476;2023-05-10T10:00:44;101209.94;;;18.48;41.13
58991;BME280;44781;53.444;14.476;2023-05-10T10:03:16;101209.77;;;18.56;41.22
58991;BME280;44781;53.444;14.476;2023-05-10T10:05:44;101208.19;;;18.64;41.28
58991;BME280;44781;53.444;14.476;2023-05-10T10:08:11;101209.17;;;18.72;40.95
58991;BME280;44781;53.444;14.476;2023-05-10T10:10:39;101203.53;;;18.80;40.82
58991;BME280;44781;53.444;14.476;2023-05-10T10:13:07;101199.90;;;18.89;40.84
58991;BME280;44781;53.444;14.476;2023-05-10T10:15:36;101196.79;;;18.98;40.88
58991;BME280;44781;53.444;14.476;2023-05-10T10:18:04;101195.12;;;19.07;40.86
58991;BME280;44781;53.444;14.476;2023-05-10T10:20:39;101194.17;;;19.16;40.44
58991;BME280;44781;53.444;14.476;2023-05-10T10:23:07;101197.76;;;19.26;39.85
58991;BME280;44781;53.444;14.476;2023-05-10T10:25:37;101201.63;;;19.36;39.28
58991;BME280;44781;53.444;14.476;2023-05-10T10:28:22;101194.66;;;19.44;38.29
58991;BME280;44781;53.444;14.476;2023-05-10T10:30:52;101193.14;;;19.51;38.06
58991;BME280;44781;53.444;14.476;2023-05-10T10:33:45;101195.63;;;19.60;37.83
58991;BME280;44781;53.444;14.476;2023-05-10T10:36:20;101183.83;;;19.68;37.28
58991;BME280;44781;53.444;14.476;2023-05-10T10:39:13;101182.35;;;19.77;37.35
58991;BME280;44781;53.444;14.476;2023-05-10T10:41:56;101183.61;;;19.85;37.39
58991;BME280;44781;53.444;14.476;2023-05-10T10:44:33;101179.38;;;19.94;37.40
58991;BME280;44781;53.444;14.476;2023-05-10T10:50:01;101175.13;;;20.12;37.27
58991;BME280;44781;53.444;14.476;2023-05-10T10:52:38;101177.95;;;20.20;37.18
58991;BME280;44781;53.444;14.476;2023-05-10T10:55:20;101175.81;;;20.26;37.30
58991;BME280;44781;53.444;14.476;2023-05-10T10:57:56;101178.63;;;20.37;36.84
58991;BME280;44781;53.444;14.476;2023-05-10T11:00:31;101178.11;;;20.43;36.71
58991;BME280;44781;53.444;14.476;2023-05-10T11:03:08;101185.17;;;20.49;36.68
58991;BME280;44781;53.444;14.476;2023-05-10T11:08:33;101179.65;;;20.62;36.42
58991;BME280;44781;53.444;14.476;2023-05-10T11:13:30;101174.30;;;20.73;35.89
58991;BME280;44781;53.444;14.476;2023-05-10T11:15:57;101168.57;;;20.79;35.91
58991;BME280;44781;53.444;14.476;2023-05-10T11:18:27;101169.95;;;20.86;35.80
58991;BME280;44781;53.444;14.476;2023-05-10T11:23:23;101166.27;;;20.99;35.93
58991;BME280;44781;53.444;14.476;2023-05-10T11:25:50;101172.38;;;21.07;35.30
58991;BME280;44781;53.444;14.476;2023-05-10T11:28:18;101165.77;;;21.12;35.12
58991;BME280;44781;53.444;14.476;2023-05-10T11:30:46;101166.63;;;21.19;35.05
58991;BME280;44781;53.444;14.476;2023-05-10T11:33:17;101166.64;;;21.29;35.49
58991;BME280;44781;53.444;14.476;2023-05-10T11:35:45;101168.05;;;21.37;35.38
58991;BME280;44781;53.444;14.476;2023-05-10T11:38:13;101165.66;;;21.46;34.75
58991;BME280;44781;53.444;14.476;2023-05-10T11:40:43;101167.33;;;21.55;34.77
58991;BME280;44781;53.444;14.476;2023-05-10T11:43:10;101174.89;;;21.63;34.45
58991;BME280;44781;53.444;14.476;2023-05-10T11:45:38;101173.71;;;21.70;33.99
58991;BME280;44781;53.444;14.476;2023-05-10T11:48:07;101169.46;;;21.76;33.50
58991;BME280;44781;53.444;14.476;2023-05-10T11:50:34;101174.60;;;21.81;33.24
58991;BME280;44781;53.444;14.476;2023-05-10T11:53:01;101182.02;;;21.87;33.29
58991;BME280;44781;53.444;14.476;2023-05-10T11:55:33;101177.86;;;21.94;33.33
58991;BME280;44781;53.444;14.476;2023-05-10T11:58:01;101176.98;;;22.01;33.27
58991;BME280;44781;53.444;14.476;2023-05-10T12:00:29;101178.56;;;22.09;33.06
58991;BME280;44781;53.444;14.476;2023-05-10T12:02:57;101179.61;;;22.17;33.03
58991;BME280;44781;53.444;14.476;2023-05-10T12:05:33;101183.91;;;22.25;32.53
58991;BME280;44781;53.444;14.476;2023-05-10T12:08:25;101186.41;;;22.32;32.38
58991;BME280;44781;53.444;14.476;2023-05-10T12:11:07;101181.77;;;22.41;32.51
58991;BME280;44781;53.444;14.476;2023-05-10T12:13:38;101175.61;;;22.49;32.63
58991;BME280;44781;53.444;14.476;2023-05-10T12:16:35;101177.65;;;22.57;32.76
58991;BME280;44781;53.444;14.476;2023-05-10T12:19:02;101187.84;;;22.67;32.59
58991;BME280;44781;53.444;14.476;2023-05-10T12:21:38;101189.03;;;22.75;32.17
58991;BME280;44781;53.444;14.476;2023-05-10T12:24:15;101187.20;;;22.84;32.27
58991;BME280;44781;53.444;14.476;2023-05-10T12:26:47;101174.29;;;22.94;32.20
58991;BME280;44781;53.444;14.476;2023-05-10T12:29:18;101172.87;;;22.95;32.02
58991;BME280;44781;53.444;14.476;2023-05-10T12:31:53;101186.23;;;23.09;31.73
58991;BME280;44781;53.444;14.476;2023-05-10T12:34:35;101177.09;;;23.13;31.64
58991;BME280;44781;53.444;14.476;2023-05-10T12:37:30;101175.05;;;23.19;31.24
58991;BME280;44781;53.444;14.476;2023-05-10T12:40:13;101179.84;;;23.28;31.21
58991;BME280;44781;53.444;14.476;2023-05-10T12:42:43;101184.21;;;23.35;31.02
58991;BME280;44781;53.444;14.476;2023-05-10T12:45:13;101182.79;;;23.42;31.05
58991;BME280;44781;53.444;14.476;2023-05-10T12:47:42;101181.33;;;23.50;30.79
58991;BME280;44781;53.444;14.476;2023-05-10T12:50:09;101183.04;;;23.57;30.95
58991;BME280;44781;53.444;14.476;2023-05-10T12:52:36;101180.74;;;23.64;30.89
58991;BME280;44781;53.444;14.476;2023-05-10T12:55:04;101173.55;;;23.73;30.87
58991;BME280;44781;53.444;14.476;2023-05-10T12:57:33;101184.55;;;23.82;30.51
58991;BME280;44781;53.444;14.476;2023-05-10T13:00:00;101183.16;;;23.89;30.16
58991;BME280;44781;53.444;14.476;2023-05-10T13:02:27;101179.89;;;23.96;30.24
58991;BME280;44781;53.444;14.476;2023-05-10T13:04:57;101175.84;;;24.04;30.22
58991;BME280;44781;53.444;14.476;2023-05-10T13:07:26;101179.11;;;24.12;30.33
58991;BME280;44781;53.444;14.476;2023-05-10T13:09:53;101178.86;;;24.22;30.31
58991;BME280;44781;53.444;14.476;2023-05-10T13:12:20;101177.02;;;24.31;30.14
58991;BME280;44781;53.444;14.476;2023-05-10T13:14:49;101176.06;;;24.38;30.04
58991;BME280;44781;53.444;14.476;2023-05-10T13:17:16;101179.36;;;24.45;30.23